首页
METAR-TAF:

METAR-TAF

机场 :

阿拉木图国际机场

阿拉木圖, 哈萨克斯坦

纬度: 43-14N, 经度: 076-56E, 海拔: 847米

当前天气观测

该预报发布于26分钟前的00:00 UTC
风速4节,风向西南
温度 16°C
湿度 68%
气压 1004 hPa
能见度10公里或以上
少量云层高于10000英尺
散云层高于20000英尺

METAR: UAAA 040000Z 23002MPS 9999 FEW100 SCT200 16/10 Q1004 R05R/CLRD65 NOSIG

时间: 06:26 (00:26 UTC)

预报

该预报发布于1小时和26分钟前的23:00 UTC
预报有效从04日的 00点(UTC)到 04日的 24点(UTC)
风速6节,风向北转西北
能见度10公里或以上
散云层高于5000英尺, 积雨云.
多云层高于10000英尺
短暂存在
从 04日的 00点(UTC)到 04日的 03点(UTC)
风速6节,风向西转西南
短暂存在
从 04日的 03点(UTC)到 04日的 14点(UTC)
风速6节,风向东北,有时为16节阵风
几率 40% :
短暂存在
从 04日的 08点(UTC)到 04日的 14点(UTC)
雷暴
成为
从 04日的 14点(UTC)到 04日的 15点(UTC)
风速6节,风向南转南东
短暂存在
从 04日的 14点(UTC)到 04日的 20点(UTC)
风速6节,风向南转西南,有时为16节阵风

TAF: UAAA 032300Z 0400/0424 34003MPS 9999 SCT050CB BKN100 TX32/0408Z TN17/0401Z TEMPO 0400/0403 24003MPS TEMPO 0403/0414 04003G08MPS PROB40 TEMPO 0408/0414 TS BECMG 0414/0415 16003MPS TEMPO 0414/0420 21003G08MPS

超过4000个机场的气象观测和天气预报(METAR&TAF报告)。

可查询的气象台以黄色和红色小点在地图上表示。

将鼠标移到小点上方,可查看气象台名称。

然后点击查看天气观测和预报。

如需切换地图:点击带黑十字的绿色按钮放大地图;点击带横线的绿色按钮缩小地图;或者点击绿色箭头查看邻近地区的地图。


METAR-TAF: